Vernon, Iowa
Current Conditions -  °F | °C
As of 6:55 PM on Saturday 22 Nov 2014 (Local Time) from KFFL Reporting Station
Overcast Overcast  
Wind Chill: 54°   Ceiling: 2500
Heat Index: 54°   Visibility: NA
Dew Point: 50°   Wind: 16mph
Humidity: 88%   Direction: 170°S
Pressure: 29.76"   Gusts: NA
Location:  40.7687°N, 92.0788°W
Report Text: KFFL 230055Z AUTO 17014KT OVC025 12/10 A2976 RMK AO2
Loading
Personal Weather Stations






























Interactive Weather Map New forecast layout! Learn more

10-Day Weather Forecast

Advertisements
Track Severe Weather on mobile